createdAt,value
2023-05-16T00:00:36.469Z,44.14
2023-05-16T00:03:03.593Z,44.21
2023-05-16T00:05:30.674Z,44.59
2023-05-16T00:07:57.530Z,44.49
2023-05-16T00:10:24.732Z,44.69
2023-05-16T00:12:51.999Z,44.89
2023-05-16T00:15:20.582Z,44.95
2023-05-16T00:17:47.547Z,44.96
2023-05-16T00:20:14.512Z,45.19
2023-05-16T00:22:41.430Z,45.24
2023-05-16T00:25:09.870Z,45.16
2023-05-16T00:27:36.929Z,45.70
2023-05-16T00:30:04.100Z,45.32
2023-05-16T00:32:31.471Z,45.33
2023-05-16T00:34:58.375Z,45.33
2023-05-16T00:37:25.355Z,45.41
2023-05-16T00:39:52.298Z,45.59
2023-05-16T00:42:20.273Z,45.74
2023-05-16T00:44:47.656Z,45.66
2023-05-16T00:47:15.169Z,45.72
2023-05-16T00:49:42.242Z,45.74
2023-05-16T00:52:09.260Z,46.05
2023-05-16T00:54:36.251Z,45.98
2023-05-16T00:57:03.814Z,46.14
2023-05-16T00:59:31.190Z,46.33
2023-05-16T01:01:58.260Z,46.52
2023-05-16T01:04:25.501Z,46.63
2023-05-16T01:06:52.463Z,46.55
2023-05-16T01:09:19.702Z,46.73
2023-05-16T01:11:47.972Z,46.55
2023-05-16T01:14:20.478Z,46.65
2023-05-16T01:16:51.664Z,46.78
2023-05-16T01:19:21.902Z,46.90
2023-05-16T01:21:51.436Z,46.84
2023-05-16T01:24:21.530Z,47.32
2023-05-16T01:26:49.267Z,47.01
2023-05-16T01:29:16.258Z,47.02
2023-05-16T01:31:43.234Z,47.39
2023-05-16T01:34:10.221Z,47.47
2023-05-16T01:36:44.886Z,47.16
2023-05-16T01:39:16.303Z,47.21
2023-05-16T01:41:43.653Z,47.27
2023-05-16T01:44:13.609Z,47.19
2023-05-16T01:46:44.717Z,47.35
2023-05-16T01:49:17.740Z,47.31
2023-05-16T01:51:50.751Z,47.42
2023-05-16T01:54:19.034Z,47.55
2023-05-16T01:56:51.927Z,47.58
2023-05-16T01:59:21.057Z,47.78
2023-05-16T02:01:48.129Z,47.68
2023-05-16T02:04:16.132Z,47.60
2023-05-16T02:06:43.783Z,47.55
2023-05-16T02:09:10.698Z,47.54
2023-05-16T02:11:37.700Z,47.72
2023-05-16T02:14:04.566Z,47.99
2023-05-16T02:16:31.880Z,47.96
2023-05-16T02:18:58.975Z,47.73
2023-05-16T02:21:26.017Z,47.99
2023-05-16T02:23:53.399Z,47.75
2023-05-16T02:26:20.253Z,47.92
2023-05-16T02:28:49.769Z,47.63
2023-05-16T02:31:21.126Z,47.96
2023-05-16T02:33:48.035Z,48.22
2023-05-16T02:36:15.168Z,48.25
2023-05-16T02:38:41.973Z,47.84
2023-05-16T02:41:08.810Z,48.18
2023-05-16T02:43:35.714Z,48.01
2023-05-16T02:46:04.858Z,48.13
2023-05-16T02:48:32.260Z,47.97
2023-05-16T02:50:59.082Z,48.19
2023-05-16T02:53:26.073Z,48.17
2023-05-16T02:55:52.950Z,48.11
2023-05-16T02:58:19.806Z,48.18
2023-05-16T03:00:48.359Z,48.41
2023-05-16T03:03:15.308Z,48.56
2023-05-16T03:05:42.707Z,48.41
2023-05-16T03:08:09.610Z,48.21
2023-05-16T03:10:36.571Z,48.30
2023-05-16T03:13:03.357Z,48.52
2023-05-16T03:15:30.320Z,48.42
2023-05-16T03:17:57.695Z,48.70
2023-05-16T03:20:24.651Z,49.03
2023-05-16T03:22:51.672Z,48.70
2023-05-16T03:25:18.497Z,48.70
2023-05-16T03:27:45.387Z,48.60
2023-05-16T03:30:13.358Z,48.75
2023-05-16T03:32:40.322Z,48.78
2023-05-16T03:35:07.518Z,48.68
2023-05-16T03:37:35.699Z,48.69
2023-05-16T03:40:05.261Z,49.01
2023-05-16T03:42:32.614Z,49.05
2023-05-16T03:44:59.569Z,48.87
2023-05-16T03:47:26.862Z,49.22
2023-05-16T03:49:53.724Z,49.04
2023-05-16T03:52:20.644Z,49.01
2023-05-16T03:54:47.567Z,48.85
2023-05-16T03:57:14.452Z,49.01
2023-05-16T03:59:41.284Z,48.99
2023-05-16T04:02:08.496Z,48.98
2023-05-16T04:04:35.653Z,49.28
2023-05-16T04:07:03.188Z,49.02
2023-05-16T04:09:30.235Z,49.01
2023-05-16T04:11:57.243Z,49.03
2023-05-16T04:14:24.612Z,48.97
2023-05-16T04:16:52.019Z,49.05
2023-05-16T04:19:19.643Z,49.20
2023-05-16T04:21:46.828Z,49.00
2023-05-16T04:24:13.639Z,49.13
2023-05-16T04:26:40.501Z,49.02
2023-05-16T04:29:07.497Z,49.05
2023-05-16T04:31:34.495Z,49.21
2023-05-16T04:34:01.734Z,49.20
2023-05-16T04:36:30.403Z,49.38
2023-05-16T04:38:58.069Z,49.14
2023-05-16T04:41:25.729Z,49.37
2023-05-16T04:43:54.062Z,49.45
2023-05-16T04:46:21.345Z,49.61
2023-05-16T04:48:48.336Z,49.71
2023-05-16T04:51:15.174Z,50.04
2023-05-16T04:53:42.261Z,49.80
2023-05-16T04:56:09.110Z,49.91
2023-05-16T04:58:36.181Z,50.17
2023-05-16T05:01:03.327Z,50.49
2023-05-16T05:03:30.178Z,51.27
2023-05-16T05:05:57.094Z,51.81
2023-05-16T05:08:23.967Z,51.52
2023-05-16T05:10:50.802Z,51.92
2023-05-16T05:13:17.623Z,51.89
2023-05-16T05:15:44.511Z,51.88
2023-05-16T05:18:12.031Z,51.67
2023-05-16T05:20:38.976Z,51.57
2023-05-16T05:23:05.830Z,51.68
2023-05-16T05:25:35.355Z,51.53
2023-05-16T05:28:04.275Z,51.53
2023-05-16T05:30:31.498Z,51.38
2023-05-16T05:32:58.735Z,51.24
2023-05-16T05:35:25.925Z,51.01
2023-05-16T05:37:53.295Z,50.89
2023-05-16T05:40:20.304Z,50.90
2023-05-16T05:42:47.500Z,50.78
2023-05-16T05:45:15.369Z,50.72
2023-05-16T05:47:42.596Z,50.53
2023-05-16T05:50:11.604Z,50.80
2023-05-16T05:52:38.797Z,50.81
2023-05-16T05:55:06.074Z,50.35
2023-05-16T05:57:32.868Z,50.18
2023-05-16T05:59:59.760Z,50.15
2023-05-16T06:02:27.165Z,49.81
2023-05-16T06:04:54.168Z,49.83
2023-05-16T06:07:21.253Z,49.55
2023-05-16T06:09:48.204Z,49.52
2023-05-16T06:12:15.420Z,49.61
2023-05-16T06:14:42.264Z,49.10
2023-05-16T06:17:09.424Z,49.38
2023-05-16T06:19:36.460Z,49.09
2023-05-16T06:22:03.353Z,48.65
2023-05-16T06:24:31.025Z,48.28
2023-05-16T06:26:58.390Z,47.27
2023-05-16T06:29:25.417Z,47.21
2023-05-16T06:31:52.378Z,46.64
2023-05-16T06:34:19.348Z,46.55
2023-05-16T06:36:46.397Z,46.52
2023-05-16T06:39:13.276Z,46.43
2023-05-16T06:41:40.337Z,46.31
2023-05-16T06:44:07.342Z,45.96
2023-05-16T06:46:34.498Z,45.85
2023-05-16T06:49:01.614Z,45.82
2023-05-16T06:51:28.569Z,45.84
2023-05-16T06:53:55.826Z,45.36
2023-05-16T06:56:24.278Z,45.33
2023-05-16T06:58:51.260Z,45.46
2023-05-16T07:01:18.341Z,45.60
2023-05-16T07:03:45.755Z,40.99
2023-05-16T07:06:15.297Z,40.16
2023-05-16T07:08:42.538Z,39.96
2023-05-16T07:11:11.806Z,39.40
2023-05-16T07:13:39.056Z,39.67
2023-05-16T07:16:08.543Z,39.58
2023-05-16T07:18:35.859Z,39.62
2023-05-16T07:21:03.118Z,39.73
2023-05-16T07:23:30.450Z,39.47
2023-05-16T07:25:57.422Z,39.47
2023-05-16T07:28:24.433Z,39.59
2023-05-16T07:31:17.265Z,39.84
2023-05-16T07:33:45.789Z,39.98
2023-05-16T07:46:08.763Z,42.63
2023-05-16T07:48:53.543Z,43.14
2023-05-16T07:51:31.302Z,43.27
2023-05-16T07:54:22.266Z,43.46
2023-05-16T07:56:51.150Z,43.74
2023-05-16T07:59:18.647Z,43.99
2023-05-16T08:01:46.267Z,43.99
2023-05-16T08:04:13.527Z,44.26
2023-05-16T08:06:41.162Z,44.20
2023-05-16T08:09:09.950Z,44.77
2023-05-16T08:11:37.397Z,44.71
2023-05-16T08:14:04.572Z,44.82
2023-05-16T08:16:31.809Z,44.82
2023-05-16T08:18:59.284Z,44.81
2023-05-16T08:21:27.567Z,44.70
2023-05-16T08:23:54.987Z,44.83
2023-05-16T08:26:22.421Z,44.61
2023-05-16T08:28:49.932Z,45.08
2023-05-16T08:31:17.535Z,44.88
2023-05-16T08:33:44.899Z,44.97
2023-05-16T08:36:12.174Z,44.72
2023-05-16T08:38:39.392Z,45.10
2023-05-16T08:41:08.047Z,44.97
2023-05-16T08:43:36.607Z,45.10
2023-05-16T08:46:03.846Z,45.13
2023-05-16T08:48:32.761Z,45.08
2023-05-16T08:51:01.854Z,45.06
2023-05-16T08:53:33.944Z,45.24
2023-05-16T08:56:19.550Z,45.30
2023-05-16T08:58:46.752Z,45.25
2023-05-16T09:01:14.931Z,45.15
2023-05-16T09:03:43.238Z,45.28
2023-05-16T09:06:10.347Z,45.00
2023-05-16T09:08:37.501Z,45.39
2023-05-16T09:11:05.766Z,45.40
2023-05-16T09:13:33.011Z,45.35
2023-05-16T09:16:32.331Z,45.06
2023-05-16T09:19:00.256Z,45.01
2023-05-16T09:21:28.560Z,45.28
2023-05-16T09:23:56.290Z,45.17
2023-05-16T09:26:23.293Z,45.21
2023-05-16T09:28:53.747Z,45.33
2023-05-16T09:31:21.780Z,45.08
2023-05-16T09:33:50.948Z,45.36
2023-05-16T09:36:17.977Z,45.39
2023-05-16T09:38:45.499Z,45.24
2023-05-16T09:41:13.227Z,45.36
2023-05-16T09:43:41.983Z,45.06
2023-05-16T09:46:14.870Z,45.25
2023-05-16T09:48:43.210Z,45.16
2023-05-16T09:51:12.190Z,45.03
2023-05-16T09:53:40.049Z,44.97
2023-05-16T09:56:08.449Z,45.27
2023-05-16T09:58:36.229Z,45.30
2023-05-16T10:01:03.599Z,45.22
2023-05-16T10:03:30.720Z,45.06
2023-05-16T10:06:02.581Z,45.14
2023-05-16T10:08:31.860Z,45.28
2023-05-16T10:10:59.042Z,44.97
2023-05-16T10:13:29.453Z,44.95
2023-05-16T10:16:05.177Z,44.87
2023-05-16T10:18:32.582Z,44.80
2023-05-16T10:21:04.712Z,45.00
2023-05-16T10:23:31.870Z,44.76
2023-05-16T10:26:10.661Z,45.00
2023-05-16T10:28:38.165Z,44.80
2023-05-16T10:31:05.793Z,44.79
2023-05-16T10:33:32.775Z,44.79
2023-05-16T10:36:03.974Z,44.39
2023-05-16T10:38:31.973Z,44.55
2023-05-16T10:40:58.954Z,44.35
2023-05-16T10:43:27.203Z,44.38
2023-05-16T10:46:04.306Z,44.42
2023-05-16T10:48:31.718Z,44.35
2023-05-16T10:50:58.562Z,44.42
2023-05-16T10:53:28.479Z,44.62
2023-05-16T10:56:07.634Z,44.56
2023-05-16T10:58:36.089Z,44.38
2023-05-16T11:01:06.497Z,44.40
2023-05-16T11:03:33.484Z,44.39
2023-05-16T11:06:05.054Z,44.55
2023-05-16T11:08:32.116Z,44.77
2023-05-16T11:11:18.851Z,44.70
2023-05-16T11:13:53.422Z,44.15
2023-05-16T11:16:27.598Z,44.25
2023-05-16T11:18:54.645Z,44.62
2023-05-16T11:21:21.743Z,44.47
2023-05-16T11:24:08.561Z,44.68
2023-05-16T11:26:37.018Z,44.69
2023-05-16T11:29:04.886Z,44.50
2023-05-16T11:31:31.923Z,44.30
2023-05-16T11:33:58.949Z,44.46
2023-05-16T11:36:25.998Z,44.56
2023-05-16T11:38:52.968Z,44.49
2023-05-16T11:41:22.049Z,44.60
2023-05-16T11:43:48.914Z,44.30
2023-05-16T11:46:16.697Z,44.40
2023-05-16T11:48:45.564Z,44.32
2023-05-16T11:51:12.604Z,44.12
2023-05-16T11:53:39.931Z,44.44
2023-05-16T11:56:08.660Z,44.15
2023-05-16T11:58:37.167Z,43.79
2023-05-16T12:01:05.138Z,44.08
2023-05-16T12:03:36.010Z,43.78
2023-05-16T12:06:15.401Z,43.94
2023-05-16T12:08:50.059Z,44.30
2023-05-16T12:11:17.508Z,44.25
2023-05-16T12:13:45.056Z,44.22
2023-05-16T12:16:12.953Z,44.04
2023-05-16T12:18:43.258Z,44.13
2023-05-16T12:21:10.587Z,44.13
2023-05-16T12:23:38.319Z,44.29
2023-05-16T12:26:07.102Z,44.19
2023-05-16T12:28:36.365Z,44.26
2023-05-16T12:31:03.254Z,44.24
2023-05-16T12:33:29.986Z,44.03
2023-05-16T12:35:57.174Z,43.81
2023-05-16T12:38:26.809Z,43.92
2023-05-16T12:40:58.036Z,43.61
2023-05-16T12:43:25.372Z,43.89
2023-05-16T12:45:53.159Z,43.90
2023-05-16T12:48:20.313Z,43.80
2023-05-16T12:50:47.232Z,43.87
2023-05-16T12:53:14.208Z,43.97
2023-05-16T12:55:41.467Z,43.66
2023-05-16T12:58:08.640Z,43.87
2023-05-16T13:00:36.918Z,43.88
2023-05-16T13:03:04.617Z,44.03
2023-05-16T13:05:31.381Z,44.15
2023-05-16T13:07:58.228Z,44.05
2023-05-16T13:10:26.305Z,44.14
2023-05-16T13:12:54.061Z,44.49
2023-05-16T13:15:21.246Z,44.48
2023-05-16T13:17:48.938Z,44.37
2023-05-16T13:20:16.271Z,44.21
2023-05-16T13:22:43.682Z,44.57
2023-05-16T13:25:11.340Z,44.59
2023-05-16T13:27:38.352Z,44.54
2023-05-16T13:30:05.550Z,44.69
2023-05-16T13:32:32.391Z,44.80
2023-05-16T13:34:59.163Z,45.00
2023-05-16T13:37:26.375Z,45.28
2023-05-16T13:39:54.943Z,45.26
2023-05-16T13:42:21.834Z,45.09
2023-05-16T13:44:48.788Z,45.37
2023-05-16T13:47:15.831Z,45.53
2023-05-16T13:49:42.702Z,45.52
2023-05-16T13:52:09.470Z,45.54
2023-05-16T13:54:36.350Z,45.55
2023-05-16T13:57:03.960Z,45.55
2023-05-16T13:59:55.041Z,45.42
2023-05-16T14:02:17.758Z,45.63
2023-05-16T14:04:44.485Z,45.75
2023-05-16T14:07:11.232Z,45.65
2023-05-16T14:09:39.784Z,45.79
2023-05-16T14:12:07.700Z,46.04
2023-05-16T14:14:34.996Z,46.08
2023-05-16T14:17:01.899Z,45.79
2023-05-16T14:19:28.859Z,46.21
2023-05-16T14:21:55.940Z,46.10
2023-05-16T14:24:22.838Z,46.39
2023-05-16T14:26:58.156Z,46.14
2023-05-16T14:29:26.718Z,46.27
2023-05-16T14:31:54.008Z,46.00
2023-05-16T14:34:22.559Z,46.33
2023-05-16T14:36:50.282Z,46.54
2023-05-16T14:39:17.874Z,46.39
2023-05-16T14:41:44.913Z,46.15
2023-05-16T14:44:11.694Z,46.28
2023-05-16T14:46:38.545Z,46.75
2023-05-16T14:49:05.736Z,46.90
2023-05-16T14:51:35.341Z,46.30
2023-05-16T14:54:02.097Z,45.58
2023-05-16T14:56:28.915Z,44.52
2023-05-16T14:58:55.970Z,45.05
2023-05-16T15:01:23.030Z,44.72
2023-05-16T15:03:55.494Z,44.98
2023-05-16T15:06:23.488Z,45.71
2023-05-16T15:08:51.053Z,46.29
2023-05-16T15:11:17.931Z,46.80
2023-05-16T15:13:44.999Z,47.11
2023-05-16T15:16:12.282Z,47.58
2023-05-16T15:18:39.434Z,47.62
2023-05-16T15:21:06.679Z,47.73
2023-05-16T15:23:33.436Z,47.79
2023-05-16T15:26:00.181Z,47.93
2023-05-16T15:28:27.207Z,47.87
2023-05-16T15:30:54.189Z,47.91
2023-05-16T15:33:21.070Z,47.84
2023-05-16T15:35:49.084Z,47.95
2023-05-16T15:38:16.038Z,47.91
2023-05-16T15:40:43.200Z,47.61
2023-05-16T15:43:10.254Z,47.50
2023-05-16T15:45:40.258Z,47.54
2023-05-16T15:48:07.877Z,47.55
2023-05-16T15:50:34.701Z,47.78
2023-05-16T15:53:01.568Z,47.64
2023-05-16T15:55:28.785Z,47.58
2023-05-16T15:57:57.598Z,48.06
2023-05-16T16:00:25.246Z,47.74
2023-05-16T16:02:52.367Z,47.79
2023-05-16T16:05:19.346Z,47.82
2023-05-16T16:07:46.262Z,48.25
2023-05-16T16:10:13.109Z,47.85
2023-05-16T16:12:39.908Z,47.92
2023-05-16T16:15:07.649Z,47.91
2023-05-16T16:17:35.513Z,48.11
2023-05-16T16:20:02.392Z,47.86
2023-05-16T16:22:29.240Z,47.98
2023-05-16T16:24:56.456Z,48.01
2023-05-16T16:27:23.914Z,47.60
2023-05-16T16:29:50.851Z,47.63
2023-05-16T16:32:17.752Z,47.44
2023-05-16T16:34:44.790Z,47.64
2023-05-16T16:37:11.980Z,47.72
2023-05-16T16:39:38.900Z,47.36
2023-05-16T16:42:07.043Z,47.51
2023-05-16T16:44:33.862Z,47.29
2023-05-16T16:47:01.938Z,47.63
2023-05-16T16:49:29.733Z,47.65
2023-05-16T16:51:57.004Z,47.30
2023-05-16T16:54:24.400Z,47.04
2023-05-16T16:56:52.784Z,47.17
2023-05-16T16:59:19.669Z,47.58
2023-05-16T17:01:47.158Z,47.42
2023-05-16T17:04:14.252Z,47.35
2023-05-16T17:06:42.430Z,47.56
2023-05-16T17:09:14.111Z,47.36
2023-05-16T17:11:42.471Z,47.55
2023-05-16T17:14:11.169Z,47.30
2023-05-16T17:16:38.790Z,47.29
2023-05-16T17:19:05.645Z,47.21
2023-05-16T17:21:34.897Z,47.22
2023-05-16T17:24:02.030Z,47.24
2023-05-16T17:26:29.453Z,47.63
2023-05-16T17:28:57.684Z,47.28
2023-05-16T17:31:24.629Z,47.13
2023-05-16T17:33:51.645Z,47.25
2023-05-16T17:36:18.509Z,47.31
2023-05-16T17:38:45.746Z,47.34
2023-05-16T17:41:12.739Z,47.10
2023-05-16T17:43:39.884Z,47.07
2023-05-16T17:46:06.840Z,47.45
2023-05-16T17:48:34.899Z,47.42
2023-05-16T17:51:02.251Z,47.66
2023-05-16T17:53:30.037Z,47.48
2023-05-16T17:55:57.171Z,47.50
2023-05-16T17:58:24.114Z,47.68
2023-05-16T18:00:51.170Z,47.48
2023-05-16T18:03:18.240Z,47.77
2023-05-16T18:05:45.217Z,47.87
2023-05-16T18:08:12.114Z,47.64
2023-05-16T18:10:51.138Z,47.58
2023-05-16T18:13:18.919Z,47.53
2023-05-16T18:15:46.047Z,47.52
2023-05-16T18:18:13.199Z,47.47
2023-05-16T18:20:41.088Z,47.55
2023-05-16T18:23:08.818Z,47.59
2023-05-16T18:25:35.650Z,47.64
2023-05-16T18:28:03.767Z,47.52
2023-05-16T18:30:30.743Z,47.58
2023-05-16T18:33:01.296Z,47.95
2023-05-16T18:35:29.720Z,47.61
2023-05-16T18:37:57.375Z,47.61
2023-05-16T18:40:26.049Z,47.49
2023-05-16T18:42:52.787Z,47.80
2023-05-16T18:45:21.040Z,47.50
2023-05-16T18:47:48.211Z,47.81
2023-05-16T18:50:16.022Z,47.54
2023-05-16T18:52:42.786Z,47.84
2023-05-16T18:55:09.985Z,47.73
2023-05-16T18:57:36.814Z,47.45
2023-05-16T19:00:04.302Z,47.56
2023-05-16T19:02:41.666Z,47.50
2023-05-16T19:05:10.074Z,47.27
2023-05-16T19:07:36.939Z,47.35
2023-05-16T19:10:04.519Z,47.31
2023-05-16T19:12:31.363Z,47.41
2023-05-16T19:14:58.152Z,47.14
2023-05-16T19:17:25.330Z,47.21
2023-05-16T19:19:52.362Z,47.25
2023-05-16T19:22:19.088Z,47.26
2023-05-16T19:24:45.837Z,47.29
2023-05-16T19:27:12.825Z,47.27
2023-05-16T19:29:39.658Z,47.51
2023-05-16T19:32:06.809Z,47.43
2023-05-16T19:34:33.766Z,47.36
2023-05-16T19:37:02.307Z,47.17
2023-05-16T19:39:30.267Z,46.94
2023-05-16T19:41:57.117Z,47.03
2023-05-16T19:44:24.010Z,47.11
2023-05-16T19:46:50.991Z,47.08
2023-05-16T19:49:20.094Z,47.00
2023-05-16T19:51:47.342Z,47.11
2023-05-16T19:54:14.260Z,47.20
2023-05-16T19:56:41.201Z,46.93
2023-05-16T19:59:08.000Z,46.72
2023-05-16T20:01:34.760Z,46.73
2023-05-16T20:04:02.083Z,46.75
2023-05-16T20:06:28.877Z,46.37
2023-05-16T20:08:56.308Z,46.63
2023-05-16T20:11:23.250Z,46.45
2023-05-16T20:13:50.088Z,46.52
2023-05-16T20:16:19.839Z,46.36
2023-05-16T20:18:47.060Z,46.23
2023-05-16T20:21:13.908Z,46.35
2023-05-16T20:23:41.299Z,46.30
2023-05-16T20:26:08.118Z,46.00
2023-05-16T20:28:34.922Z,46.29
2023-05-16T20:31:01.630Z,45.70
2023-05-16T20:33:28.595Z,45.73
2023-05-16T20:35:55.496Z,45.67
2023-05-16T20:38:22.294Z,45.63
2023-05-16T20:40:49.406Z,45.71
2023-05-16T20:43:16.268Z,45.44
2023-05-16T20:45:44.470Z,45.48
2023-05-16T20:48:11.340Z,45.62
2023-05-16T20:50:39.163Z,45.98
2023-05-16T20:53:05.976Z,46.01
2023-05-16T20:55:32.767Z,45.68
2023-05-16T20:58:00.566Z,45.91
2023-05-16T21:00:27.399Z,46.00
2023-05-16T21:02:54.306Z,45.65
2023-05-16T21:05:25.465Z,45.67
2023-05-16T21:07:52.939Z,45.57
2023-05-16T21:10:19.806Z,45.43
2023-05-16T21:12:46.710Z,45.49
2023-05-16T21:15:13.455Z,45.29
2023-05-16T21:17:41.727Z,45.36
2023-05-16T21:20:08.929Z,45.23
2023-05-16T21:22:35.951Z,45.40
2023-05-16T21:25:03.085Z,45.08
2023-05-16T21:27:29.978Z,45.11
2023-05-16T21:29:56.820Z,45.09
2023-05-16T21:32:23.552Z,44.84
2023-05-16T21:34:50.354Z,44.94
2023-05-16T21:37:17.122Z,44.86
2023-05-16T21:39:43.909Z,45.06
2023-05-16T21:42:10.673Z,44.93
2023-05-16T21:44:37.389Z,44.74
2023-05-16T21:47:04.268Z,45.06
2023-05-16T21:49:31.378Z,44.88
2023-05-16T21:51:59.632Z,44.95
2023-05-16T21:54:26.490Z,44.88
2023-05-16T21:56:53.202Z,45.19
2023-05-16T21:59:20.021Z,45.08
2023-05-16T22:01:46.728Z,44.89
2023-05-16T22:04:13.838Z,45.17
2023-05-16T22:06:40.831Z,45.23
2023-05-16T22:09:08.200Z,45.11
2023-05-16T22:11:35.017Z,45.51
2023-05-16T22:24:36.527Z,46.01
2023-05-16T22:27:03.387Z,46.15
2023-05-16T22:29:31.334Z,46.52
2023-05-16T22:31:58.312Z,46.57
2023-05-16T22:34:25.178Z,47.05
2023-05-16T22:36:51.956Z,46.87
2023-05-16T22:39:18.755Z,47.43
2023-05-16T22:41:45.912Z,47.67
2023-05-16T22:44:12.857Z,47.85
2023-05-16T22:46:39.694Z,47.70
2023-05-16T22:49:06.671Z,47.56
2023-05-16T22:51:33.609Z,47.53
2023-05-16T22:54:00.668Z,47.36
2023-05-16T22:56:27.455Z,47.30
2023-05-16T22:58:54.307Z,47.40
2023-05-16T23:01:22.218Z,47.53
2023-05-16T23:03:49.230Z,47.24
2023-05-16T23:06:16.887Z,47.26
2023-05-16T23:08:43.689Z,47.26
2023-05-16T23:11:10.462Z,47.15
2023-05-16T23:13:37.252Z,46.98
2023-05-16T23:16:04.976Z,46.78
2023-05-16T23:18:32.004Z,46.73
2023-05-16T23:20:58.999Z,46.87
2023-05-16T23:23:25.772Z,46.72
2023-05-16T23:25:52.571Z,46.72
2023-05-16T23:28:19.849Z,46.53
2023-05-16T23:30:46.697Z,46.48
2023-05-16T23:33:14.374Z,46.38
2023-05-16T23:35:41.253Z,46.34
2023-05-16T23:38:08.039Z,46.28
2023-05-16T23:40:34.863Z,46.23
2023-05-16T23:43:01.688Z,46.40
2023-05-16T23:45:30.386Z,46.05
2023-05-16T23:47:57.333Z,46.12
2023-05-16T23:50:24.235Z,46.09
2023-05-16T23:52:52.419Z,45.98
2023-05-16T23:55:20.603Z,45.97
2023-05-16T23:57:47.366Z,46.14
